createdAt,value
2023-03-19T00:00:11.958Z,100601.34
2023-03-19T00:03:14.277Z,100592.03
2023-03-19T00:06:16.741Z,100591.94
2023-03-19T00:09:20.716Z,100589.09
2023-03-19T00:12:23.497Z,100589.47
2023-03-19T00:15:26.208Z,100578.75
2023-03-19T00:18:28.688Z,100571.69
2023-03-19T00:21:32.460Z,100577.22
2023-03-19T00:24:34.884Z,100584.28
2023-03-19T00:27:38.259Z,100589.56
2023-03-19T00:30:41.083Z,100591.34
2023-03-19T00:33:44.051Z,100593.22
2023-03-19T00:36:47.671Z,100602.72
2023-03-19T00:39:50.445Z,100601.91
2023-03-19T00:42:52.811Z,100597.56
2023-03-19T00:45:55.674Z,100584.97
2023-03-19T00:48:58.960Z,100592.16
2023-03-19T00:52:01.339Z,100597.06
2023-03-19T00:55:03.853Z,100598.38
2023-03-19T00:58:06.911Z,100585.69
2023-03-19T01:01:11.147Z,100603.69
2023-03-19T01:04:15.002Z,100598.94
2023-03-19T01:07:17.787Z,100590.97
2023-03-19T01:10:21.080Z,100591.66
2023-03-19T01:13:23.524Z,100593.09
2023-03-19T01:16:26.118Z,100596.63
2023-03-19T01:19:28.961Z,100594.75
2023-03-19T01:22:31.454Z,100605.19
2023-03-19T01:25:35.869Z,100606.00
2023-03-19T01:28:40.217Z,100592.63
2023-03-19T01:31:43.795Z,100601.91
2023-03-19T01:35:05.402Z,100604.16
2023-03-19T01:38:08.140Z,100599.47
2023-03-19T01:41:12.325Z,100598.63
2023-03-19T01:44:28.565Z,100592.88
2023-03-19T01:51:26.385Z,100598.38
2023-03-19T01:54:32.097Z,100588.94
2023-03-19T01:58:01.384Z,100589.28
2023-03-19T02:01:36.053Z,100593.16
2023-03-19T02:04:39.659Z,100600.75
2023-03-19T02:07:42.794Z,100601.16
2023-03-19T02:10:46.603Z,100585.41
2023-03-19T02:13:49.594Z,100599.75
2023-03-19T02:16:52.393Z,100592.69
2023-03-19T02:20:00.640Z,100593.16
2023-03-19T02:23:21.478Z,100593.03
2023-03-19T02:26:29.843Z,100593.13
2023-03-19T02:29:38.834Z,100586.69
2023-03-19T02:32:42.887Z,100591.50
2023-03-19T02:35:49.736Z,100592.75
2023-03-19T02:38:54.339Z,100603.00
2023-03-19T02:41:57.635Z,100597.13
2023-03-19T02:45:01.978Z,100605.84
2023-03-19T02:48:04.867Z,100605.69
2023-03-19T02:51:07.552Z,100620.63
2023-03-19T02:54:10.015Z,100615.94
2023-03-19T02:57:12.377Z,100615.22
2023-03-19T03:00:17.243Z,100608.13
2023-03-19T03:03:19.651Z,100613.59
2023-03-19T03:06:22.069Z,100595.38
2023-03-19T03:09:24.505Z,100612.53
2023-03-19T03:12:27.307Z,100601.66
2023-03-19T03:15:29.844Z,100609.22
2023-03-19T03:18:32.831Z,100606.66
2023-03-19T03:21:35.763Z,100602.53
2023-03-19T03:24:39.359Z,100606.53
2023-03-19T03:27:41.993Z,100620.31
2023-03-19T03:30:44.617Z,100610.41
2023-03-19T03:33:47.037Z,100591.53
2023-03-19T03:36:49.369Z,100616.38
2023-03-19T03:39:51.753Z,100625.31
2023-03-19T03:42:54.216Z,100624.53
2023-03-19T03:45:57.692Z,100623.09
2023-03-19T03:49:00.245Z,100629.31
2023-03-19T03:52:02.592Z,100623.69
2023-03-19T03:55:05.467Z,100624.78
2023-03-19T03:58:08.161Z,100620.41
2023-03-19T04:01:15.837Z,100612.56
2023-03-19T04:04:20.369Z,100619.91
2023-03-19T04:07:22.959Z,100608.28
2023-03-19T04:10:31.565Z,100588.81
2023-03-19T04:13:36.902Z,100609.28
2023-03-19T04:16:40.616Z,100613.66
2023-03-19T04:19:44.213Z,100623.50
2023-03-19T04:22:46.802Z,100619.16
2023-03-19T04:25:49.293Z,100618.09
2023-03-19T04:28:51.771Z,100619.13
2023-03-19T04:31:54.409Z,100618.19
2023-03-19T04:34:58.516Z,100620.72
2023-03-19T04:38:00.794Z,100614.00
2023-03-19T04:41:04.315Z,100618.78
2023-03-19T04:44:10.170Z,100607.97
2023-03-19T04:47:15.236Z,100611.84
2023-03-19T04:50:25.868Z,100608.03
2023-03-19T04:53:29.628Z,100608.94
2023-03-19T04:56:32.908Z,100607.72
2023-03-19T04:59:36.689Z,100576.41
2023-03-19T05:02:39.430Z,100610.19
2023-03-19T05:05:41.917Z,100621.25
2023-03-19T05:08:44.809Z,100616.44
2023-03-19T05:11:49.042Z,100622.94
2023-03-19T05:14:55.332Z,100623.34
2023-03-19T05:18:05.212Z,100606.06
2023-03-19T05:21:16.023Z,100623.41
2023-03-19T05:24:19.475Z,100609.03
2023-03-19T05:27:22.096Z,100613.66
2023-03-19T05:30:45.307Z,100625.59
2023-03-19T05:33:55.325Z,100626.38
2023-03-19T05:36:58.536Z,100619.03
2023-03-19T05:40:00.985Z,100625.31
2023-03-19T05:43:04.416Z,100621.13
2023-03-19T05:46:06.947Z,100632.38
2023-03-19T05:49:09.754Z,100630.97
2023-03-19T05:52:12.276Z,100631.47
2023-03-19T05:55:14.781Z,100637.22
2023-03-19T05:58:23.265Z,100642.00
2023-03-19T06:01:26.049Z,100631.03
2023-03-19T06:04:30.176Z,100644.47
2023-03-19T06:07:33.097Z,100632.31
2023-03-19T06:10:36.821Z,100625.19
2023-03-19T06:13:44.086Z,100636.31
2023-03-19T06:16:51.038Z,100629.16
2023-03-19T06:19:53.440Z,100619.50
2023-03-19T06:22:56.088Z,100629.53
2023-03-19T06:25:58.442Z,100631.94
2023-03-19T06:29:05.051Z,100645.63
2023-03-19T06:32:08.374Z,100628.00
2023-03-19T06:35:14.538Z,100649.19
2023-03-19T06:38:20.252Z,100657.16
2023-03-19T06:41:22.804Z,100655.13
2023-03-19T06:44:26.511Z,100653.03
2023-03-19T06:47:29.116Z,100653.88
2023-03-19T06:50:31.651Z,100666.81
2023-03-19T06:53:34.668Z,100668.34
2023-03-19T06:56:37.519Z,100667.13
2023-03-19T06:59:39.894Z,100670.19
2023-03-19T07:02:42.244Z,100659.44
2023-03-19T07:05:44.632Z,100675.44
2023-03-19T07:08:47.108Z,100678.16
2023-03-19T07:11:49.473Z,100676.88
2023-03-19T07:14:51.928Z,100686.34
2023-03-19T07:17:54.308Z,100686.38
2023-03-19T07:20:56.625Z,100684.84
2023-03-19T07:23:58.994Z,100687.56
2023-03-19T07:27:02.412Z,100682.47
2023-03-19T07:30:05.127Z,100684.44
2023-03-19T07:33:08.382Z,100686.44
2023-03-19T07:36:11.354Z,100670.22
2023-03-19T07:39:13.769Z,100685.78
2023-03-19T07:42:16.786Z,100685.81
2023-03-19T07:45:19.539Z,100693.16
2023-03-19T07:48:21.944Z,100692.81
2023-03-19T07:51:24.286Z,100690.59
2023-03-19T07:54:26.720Z,100684.97
2023-03-19T07:57:29.172Z,100695.41
2023-03-19T08:00:32.542Z,100697.41
2023-03-19T08:03:35.197Z,100691.88
2023-03-19T08:06:38.826Z,100692.44
2023-03-19T08:09:41.422Z,100689.41
2023-03-19T08:12:43.959Z,100687.91
2023-03-19T08:15:46.481Z,100656.13
2023-03-19T08:18:50.636Z,100683.31
2023-03-19T08:21:53.754Z,100694.16
2023-03-19T08:24:56.166Z,100691.59
2023-03-19T08:28:01.764Z,100681.16
2023-03-19T08:31:13.445Z,100687.78
2023-03-19T08:34:16.050Z,100683.53
2023-03-19T08:37:18.969Z,100678.22
2023-03-19T08:40:21.352Z,100679.72
2023-03-19T08:43:23.726Z,100684.63
2023-03-19T08:46:27.754Z,100670.53
2023-03-19T08:49:30.224Z,100683.53
2023-03-19T08:52:32.790Z,100679.22
2023-03-19T08:55:35.313Z,100678.44
2023-03-19T08:58:37.903Z,100676.69
2023-03-19T09:01:40.437Z,100683.72
2023-03-19T09:04:46.360Z,100678.03
2023-03-19T09:07:49.453Z,100682.84
2023-03-19T09:10:52.017Z,100677.50
2023-03-19T09:13:55.604Z,100685.94
2023-03-19T09:16:58.583Z,100687.31
2023-03-19T09:20:01.104Z,100694.09
2023-03-19T09:23:03.644Z,100690.56
2023-03-19T09:26:05.949Z,100684.81
2023-03-19T09:29:08.363Z,100698.72
2023-03-19T09:32:11.486Z,100698.44
2023-03-19T09:35:14.830Z,100703.66
2023-03-19T09:38:17.229Z,100692.22
2023-03-19T09:41:38.207Z,100693.06
2023-03-19T09:44:44.392Z,100691.44
2023-03-19T09:47:51.694Z,100686.75
2023-03-19T09:50:54.415Z,100680.50
2023-03-19T09:54:00.882Z,100686.44
2023-03-19T09:57:03.521Z,100672.19
2023-03-19T10:00:22.754Z,100668.03
2023-03-19T10:03:32.163Z,100669.41
2023-03-19T10:06:36.843Z,100673.72
2023-03-19T10:09:45.466Z,100669.81
2023-03-19T10:13:08.872Z,100664.13
2023-03-19T10:16:20.536Z,100663.16
2023-03-19T10:19:26.586Z,100656.63
2023-03-19T10:22:39.229Z,100657.13
2023-03-19T10:25:42.591Z,100661.25
2023-03-19T10:28:47.531Z,100651.22
2023-03-19T10:32:01.238Z,100648.56
2023-03-19T10:35:09.194Z,100655.22
2023-03-19T10:38:31.344Z,100645.16
2023-03-19T10:41:48.790Z,100652.66
2023-03-19T10:45:01.239Z,100650.94
2023-03-19T10:48:05.502Z,100649.91
2023-03-19T10:51:08.523Z,100640.16
2023-03-19T10:54:23.696Z,100647.28
2023-03-19T10:57:28.196Z,100652.38
2023-03-19T11:00:33.423Z,100645.25
2023-03-19T11:03:41.823Z,100655.41
2023-03-19T11:06:49.608Z,100650.56
2023-03-19T11:09:52.568Z,100639.31
2023-03-19T11:13:08.198Z,100643.91
2023-03-19T11:16:10.872Z,100641.19
2023-03-19T11:19:25.134Z,100631.59
2023-03-19T11:22:38.117Z,100648.28
2023-03-19T11:25:43.039Z,100635.00
2023-03-19T11:28:45.402Z,100624.50
2023-03-19T11:32:21.725Z,100626.34
2023-03-19T11:35:29.679Z,100624.47
2023-03-19T11:38:43.045Z,100625.66
2023-03-19T11:41:54.936Z,100620.81
2023-03-19T11:45:40.787Z,100611.56
2023-03-19T11:49:02.711Z,100604.41
2023-03-19T11:52:32.901Z,100617.13
2023-03-19T11:55:42.595Z,100599.81
2023-03-19T11:58:56.201Z,100601.13
2023-03-19T12:02:16.707Z,100613.75
2023-03-19T12:05:21.967Z,100611.91
2023-03-19T12:08:47.792Z,100605.81
2023-03-19T12:11:50.081Z,100607.44
2023-03-19T12:15:01.541Z,100604.78
2023-03-19T12:18:14.347Z,100607.22
2023-03-19T12:21:20.419Z,100602.47
2023-03-19T12:24:41.123Z,100597.78
2023-03-19T12:27:46.452Z,100608.22
2023-03-19T12:31:10.380Z,100598.97
2023-03-19T12:34:29.839Z,100600.84
2023-03-19T12:37:46.721Z,100594.34
2023-03-19T12:41:25.146Z,100595.53
2023-03-19T12:44:29.697Z,100588.44
2023-03-19T12:47:38.682Z,100588.69
2023-03-19T12:50:45.319Z,100590.56
2023-03-19T12:53:56.623Z,100581.94
2023-03-19T12:57:07.399Z,100585.44
2023-03-19T13:00:09.875Z,100578.31
2023-03-19T13:03:19.846Z,100565.69
2023-03-19T13:06:57.059Z,100566.81
2023-03-19T13:10:05.203Z,100562.19
2023-03-19T13:13:46.790Z,100550.44
2023-03-19T13:16:59.531Z,100552.06
2023-03-19T13:20:24.536Z,100549.94
2023-03-19T13:23:31.007Z,100548.06
2023-03-19T13:26:34.964Z,100548.31
2023-03-19T13:29:39.062Z,100539.38
2023-03-19T13:32:49.868Z,100545.50
2023-03-19T13:35:53.072Z,100536.50
2023-03-19T13:38:56.476Z,100523.47
2023-03-19T13:42:10.172Z,100542.75
2023-03-19T13:45:21.208Z,100547.91
2023-03-19T13:48:25.006Z,100536.72
2023-03-19T13:51:30.906Z,100544.84
2023-03-19T13:54:39.791Z,100543.56
2023-03-19T13:57:42.667Z,100536.72
2023-03-19T14:00:45.284Z,100551.44
2023-03-19T14:04:02.802Z,100547.44
2023-03-19T14:07:21.108Z,100549.56
2023-03-19T14:10:25.881Z,100545.44
2023-03-19T14:13:43.360Z,100545.78
2023-03-19T14:16:49.879Z,100540.28
2023-03-19T14:19:54.306Z,100545.44
2023-03-19T14:23:04.454Z,100543.22
2023-03-19T14:26:17.244Z,100554.84
2023-03-19T14:29:20.151Z,100552.53
2023-03-19T14:32:26.661Z,100552.72
2023-03-19T14:35:29.365Z,100548.78
2023-03-19T14:38:48.684Z,100543.59
2023-03-19T14:42:19.939Z,100543.78
2023-03-19T14:45:22.404Z,100551.72
2023-03-19T14:48:36.771Z,100544.84
2023-03-19T14:52:06.397Z,100544.94
2023-03-19T14:55:17.709Z,100538.19
2023-03-19T14:58:21.096Z,100542.69
2023-03-19T15:01:27.441Z,100541.03
2023-03-19T15:04:29.830Z,100544.63
2023-03-19T15:07:41.122Z,100540.56
2023-03-19T15:11:08.879Z,100547.16
2023-03-19T15:14:23.150Z,100548.84
2023-03-19T15:17:28.636Z,100549.28
2023-03-19T15:20:36.950Z,100541.94
2023-03-19T15:23:41.817Z,100538.84
2023-03-19T15:26:44.744Z,100544.16
2023-03-19T15:29:49.275Z,100536.59
2023-03-19T15:33:08.295Z,100535.28
2023-03-19T15:36:18.926Z,100538.31
2023-03-19T15:39:24.172Z,100535.56
2023-03-19T15:42:27.822Z,100533.50
2023-03-19T15:45:33.954Z,100534.72
2023-03-19T15:48:48.840Z,100535.91
2023-03-19T15:51:53.695Z,100541.78
2023-03-19T15:54:56.576Z,100543.84
2023-03-19T15:58:05.659Z,100545.75
2023-03-19T16:01:10.107Z,100550.81
2023-03-19T16:04:20.994Z,100548.97
2023-03-19T16:07:32.729Z,100556.44
2023-03-19T16:10:42.013Z,100554.13
2023-03-19T16:13:57.136Z,100559.97
2023-03-19T16:17:14.545Z,100567.44
2023-03-19T16:20:17.403Z,100558.00
2023-03-19T16:23:19.923Z,100564.88
2023-03-19T16:26:24.932Z,100564.19
2023-03-19T16:29:44.488Z,100567.34
2023-03-19T16:32:46.994Z,100565.34
2023-03-19T16:35:52.648Z,100566.47
2023-03-19T16:38:59.495Z,100572.25
2023-03-19T16:42:14.964Z,100575.84
2023-03-19T16:45:31.087Z,100552.41
2023-03-19T16:48:33.777Z,100577.94
2023-03-19T16:51:37.096Z,100576.41
2023-03-19T16:54:39.575Z,100576.13
2023-03-19T16:57:42.486Z,100577.50
2023-03-19T17:00:45.982Z,100565.47
2023-03-19T17:03:49.810Z,100586.78
2023-03-19T17:06:53.239Z,100586.19
2023-03-19T17:09:55.974Z,100565.16
2023-03-19T17:12:58.518Z,100568.59
2023-03-19T17:16:04.023Z,100580.63
2023-03-19T17:19:11.093Z,100582.56
2023-03-19T17:22:14.512Z,100585.38
2023-03-19T17:25:18.477Z,100588.69
2023-03-19T17:28:21.179Z,100592.03
2023-03-19T17:31:28.892Z,100588.50
2023-03-19T17:34:35.984Z,100586.56
2023-03-19T17:37:40.359Z,100589.00
2023-03-19T17:40:42.542Z,100584.66
2023-03-19T17:43:45.244Z,100595.91
2023-03-19T17:46:50.186Z,100583.66
2023-03-19T17:49:53.390Z,100576.00
2023-03-19T17:52:56.036Z,100582.00
2023-03-19T17:55:58.753Z,100574.72
2023-03-19T17:59:01.414Z,100584.28
2023-03-19T18:02:04.705Z,100590.59
2023-03-19T18:05:11.937Z,100590.31
2023-03-19T18:08:17.387Z,100596.66
2023-03-19T18:11:19.804Z,100591.19
2023-03-19T18:14:22.572Z,100592.03
2023-03-19T18:17:25.103Z,100590.97
2023-03-19T18:20:29.889Z,100592.06
2023-03-19T18:23:32.276Z,100586.88
2023-03-19T18:26:34.654Z,100589.59
2023-03-19T18:29:37.037Z,100581.16
2023-03-19T18:32:45.760Z,100584.16
2023-03-19T18:35:48.468Z,100581.97
2023-03-19T18:38:50.997Z,100583.91
2023-03-19T18:41:53.376Z,100584.72
2023-03-19T18:44:55.681Z,100590.47
2023-03-19T18:47:58.154Z,100595.13
2023-03-19T18:51:00.794Z,100587.22
2023-03-19T18:54:03.205Z,100584.50
2023-03-19T18:57:05.873Z,100588.88
2023-03-19T19:00:19.226Z,100586.13
2023-03-19T19:03:28.625Z,100582.59
2023-03-19T19:06:46.798Z,100585.88
2023-03-19T19:09:49.634Z,100588.34
2023-03-19T19:12:54.462Z,100583.16
2023-03-19T19:15:56.944Z,100582.59
2023-03-19T19:18:59.353Z,100580.44
2023-03-19T19:22:01.809Z,100589.16
2023-03-19T19:25:04.596Z,100576.38
2023-03-19T19:28:13.436Z,100582.91
2023-03-19T19:31:24.007Z,100572.03
2023-03-19T19:34:26.473Z,100584.28
2023-03-19T19:37:28.783Z,100580.19
2023-03-19T19:40:31.953Z,100583.19
2023-03-19T19:43:34.437Z,100583.16
2023-03-19T19:46:36.734Z,100590.28
2023-03-19T19:49:39.494Z,100588.63
2023-03-19T19:52:41.882Z,100592.44
2023-03-19T19:55:45.355Z,100584.81
2023-03-19T19:58:49.598Z,100594.63
2023-03-19T20:01:52.023Z,100585.34
2023-03-19T20:04:54.364Z,100591.31
2023-03-19T20:07:58.836Z,100586.44
2023-03-19T20:11:02.270Z,100587.78
2023-03-19T20:14:04.620Z,100580.16
2023-03-19T20:17:07.002Z,100584.22
2023-03-19T20:20:17.504Z,100590.47
2023-03-19T20:23:20.914Z,100591.59
2023-03-19T20:26:25.266Z,100578.47
2023-03-19T20:29:29.702Z,100587.44
2023-03-19T20:32:33.163Z,100586.31
2023-03-19T20:35:37.284Z,100594.41
2023-03-19T20:38:39.782Z,100590.03
2023-03-19T20:41:42.237Z,100596.47
2023-03-19T20:44:45.212Z,100589.94
2023-03-19T20:47:48.310Z,100591.03
2023-03-19T20:50:50.744Z,100560.72
2023-03-19T20:53:53.222Z,100587.81
2023-03-19T20:56:56.102Z,100592.38
2023-03-19T21:00:03.353Z,100580.81
2023-03-19T21:03:06.006Z,100584.34
2023-03-19T21:06:19.787Z,100583.19
2023-03-19T21:09:22.656Z,100578.53
2023-03-19T21:12:29.255Z,100581.22
2023-03-19T21:15:31.791Z,100581.44
2023-03-19T21:18:34.118Z,100585.47
2023-03-19T21:21:38.942Z,100587.06
2023-03-19T21:24:41.612Z,100586.47
2023-03-19T21:27:47.294Z,100584.22
2023-03-19T21:30:49.669Z,100594.50
2023-03-19T21:33:52.352Z,100591.22
2023-03-19T21:36:55.063Z,100590.63
2023-03-19T21:39:57.556Z,100589.50
2023-03-19T21:43:02.552Z,100583.47
2023-03-19T21:46:22.954Z,100575.47
2023-03-19T21:49:26.468Z,100578.03
2023-03-19T21:52:28.874Z,100581.59
2023-03-19T21:55:32.993Z,100578.06
2023-03-19T21:58:36.677Z,100577.50
2023-03-19T22:01:39.013Z,100569.53
2023-03-19T22:04:41.595Z,100573.78
2023-03-19T22:07:44.230Z,100565.84
2023-03-19T22:10:47.734Z,100568.31
2023-03-19T22:13:50.101Z,100568.94
2023-03-19T22:16:54.552Z,100572.25
2023-03-19T22:19:58.314Z,100572.25
2023-03-19T22:23:01.080Z,100574.97
2023-03-19T22:26:03.356Z,100578.09
2023-03-19T22:29:08.879Z,100570.00
2023-03-19T22:32:17.766Z,100575.16
2023-03-19T22:35:20.599Z,100556.59
2023-03-19T22:38:23.679Z,100569.97
2023-03-19T22:41:34.222Z,100578.38
2023-03-19T22:44:36.592Z,100569.59
2023-03-19T22:47:39.125Z,100574.06
2023-03-19T22:50:41.666Z,100567.78
2023-03-19T22:53:44.468Z,100569.59
2023-03-19T22:56:46.793Z,100579.06
2023-03-19T22:59:49.260Z,100564.56
2023-03-19T23:02:57.466Z,100570.59
2023-03-19T23:06:04.689Z,100571.84
2023-03-19T23:09:08.506Z,100549.69
2023-03-19T23:12:10.919Z,100566.03
2023-03-19T23:15:13.262Z,100563.50
2023-03-19T23:18:19.473Z,100557.00
2023-03-19T23:21:23.557Z,100556.53
2023-03-19T23:24:26.035Z,100557.13
2023-03-19T23:27:28.578Z,100552.50
2023-03-19T23:30:33.596Z,100548.97
2023-03-19T23:33:36.137Z,100553.34
2023-03-19T23:36:38.605Z,100553.50
2023-03-19T23:39:41.286Z,100548.16
2023-03-19T23:42:50.542Z,100545.94
2023-03-19T23:45:53.341Z,100547.44
2023-03-19T23:48:56.457Z,100552.56
2023-03-19T23:51:59.298Z,100543.84
2023-03-19T23:55:01.681Z,100547.91
2023-03-19T23:58:04.034Z,100540.03
